world map with GTE marked

GTE - Airport

This information may not be accurate or current and is not valid for navigation or flight planning. No warranty of fitness for any purpose is made or implied.

flag of Northern Territoryflag of Australia

Donate via PayPal

Additional information is available on the NEW Great Circle Mapper

Location
City:  Groote Eylandt, Northern Territory, Australia
ICAO / IATA:YGTE / GTE

Details
Type:Airport (Aerodrome, Airfield)
Latitude:13°58'30"S (-13.974999)
Longitude:136°27'36"E (136.460000)
Datum:WGS 1984
Elevation:53 ft (16 m)
Runways:1
Longest:6237 × 98 ft (1901 × 30 m)

Time
Timezone:UTC+9:30 (DST+11:30)
Local Time:

Weather
METAR:YGTE  041400Z AUTO 33010KT 9999 // BKN059 BKN076 30/25 Q1002

Related Locations
Nearby:
Farthest:CAY: 11569 mi / 18618 km
Cayenne [Félix Eboué Airport (Rochambeau Airport)], GF

Find:

   beyond  
but within

Other Information
Maps:
Sources:

  


 


Great Circle Mapper   Great Circle Mapper
Great Circle Mapper FAQ   Great Circle Mapper FAQ
  Karl's Home Page
KLS²   KLS² Home
   GC on Facebook
Airlines of the World   Airlines of the World
Donate via PayPal


Copyright © 2004-2019, Karl L. Swartz. All rights reserved.
All trademarks mentioned herein belong to their respective owners.

Please see credits for attribution and copyright information.

Karl Swartz <karl@kls2.com>
  Powered by FreeBSD
Valid HTML 4.01!
Labeled with ICRA
hCard Microformat
Geo Microformat